KDUC/DUC METAR and TAF weather

Enter ICAO airport designator
Station Type Date Time Source
KDUC METAR 2018/10/22 16:15 UTC NOAA

KDUC 221615Z AUTO 17009KT 10SM CLR 15/08 A3022 RMK AO2 T01490078


Station Type Date Time Source
KDUC Decoded METAR 2018/10/22 16:15 UTC NOAA

Duncan, Halliburton Field Airport, OK, United States (KDUC) 34-28-15N 097-57-36W
Oct 22, 2018 - 12:15 PM EDT / 2018.10.22 1615 UTC
Wind: from the S (170 degrees) at 10 MPH (9 KT):0
Visibility: 10 mile(s):0
Sky conditions: clear
Temperature: 58.8 F (14.9 C)
Dew Point: 46.0 F (7.8 C)
Relative Humidity: 62%
Pressure (altimeter): 30.22 in. Hg (1023 hPa)
ob: KDUC 221615Z AUTO 17009KT 10SM CLR 15/08 A3022 RMK AO2 T01490078
cycle: 16

Station Type Date Time Source
KDUC TAF UTC NOAA

Error!


Example: see airport list